createdAt,value
2023-04-27T00:01:17.070Z,7.28
2023-04-27T00:02:49.978Z,8.45
2023-04-27T00:04:22.991Z,6.07
2023-04-27T00:05:56.269Z,7.50
2023-04-27T00:07:28.268Z,9.48
2023-04-27T00:09:01.227Z,10.95
2023-04-27T00:10:34.266Z,6.55
2023-04-27T00:12:07.591Z,9.25
2023-04-27T00:13:40.283Z,8.40
2023-04-27T00:15:13.396Z,8.73
2023-04-27T00:16:46.218Z,7.25
2023-04-27T00:18:19.015Z,7.63
2023-04-27T00:19:52.140Z,7.18
2023-04-27T00:21:24.849Z,8.52
2023-04-27T00:22:57.596Z,9.55
2023-04-27T00:24:30.457Z,8.70
2023-04-27T00:26:03.234Z,7.55
2023-04-27T00:27:35.973Z,9.68
2023-04-27T00:29:08.704Z,11.05
2023-04-27T00:30:42.720Z,8.25
2023-04-27T00:32:15.557Z,9.57
2023-04-27T00:33:48.366Z,8.13
2023-04-27T00:35:21.188Z,6.32
2023-04-27T00:36:52.933Z,9.27
2023-04-27T00:38:25.631Z,8.55
2023-04-27T00:39:58.318Z,8.23
2023-04-27T00:41:31.517Z,10.00
2023-04-27T00:43:04.242Z,8.73
2023-04-27T00:44:38.051Z,8.38
2023-04-27T00:46:15.271Z,10.52
2023-04-27T00:47:48.171Z,8.82
2023-04-27T00:49:21.426Z,9.02
2023-04-27T00:50:54.176Z,6.72
2023-04-27T00:52:27.011Z,9.32
2023-04-27T00:53:59.873Z,6.38
2023-04-27T00:55:32.663Z,10.38
2023-04-27T00:57:05.459Z,9.02
2023-04-27T00:58:38.162Z,7.72
2023-04-27T01:00:11.800Z,7.72
2023-04-27T01:01:46.703Z,9.32
2023-04-27T01:03:19.669Z,6.25
2023-04-27T01:04:53.340Z,8.32
2023-04-27T01:06:25.213Z,7.65
2023-04-27T01:07:57.906Z,8.60
2023-04-27T01:09:30.712Z,10.73
2023-04-27T01:11:04.126Z,8.80
2023-04-27T01:12:37.303Z,6.97
2023-04-27T01:14:10.050Z,6.20
2023-04-27T01:15:42.739Z,9.32
2023-04-27T01:17:18.195Z,9.63
2023-04-27T01:18:50.975Z,7.32
2023-04-27T01:20:23.934Z,8.00
2023-04-27T01:21:55.755Z,8.63
2023-04-27T01:23:29.808Z,6.25
2023-04-27T01:25:02.520Z,7.00
2023-04-27T01:26:35.559Z,7.25
2023-04-27T01:28:08.253Z,8.15
2023-04-27T01:29:41.171Z,7.22
2023-04-27T01:31:14.898Z,7.75
2023-04-27T01:32:47.643Z,8.55
2023-04-27T01:34:20.648Z,7.47
2023-04-27T01:35:53.314Z,8.85
2023-04-27T01:37:27.199Z,7.25
2023-04-27T01:39:01.224Z,8.90
2023-04-27T01:40:33.965Z,8.95
2023-04-27T01:42:06.880Z,8.60
2023-04-27T01:43:39.704Z,8.95
2023-04-27T01:45:11.966Z,9.23
2023-04-27T01:46:44.752Z,7.43
2023-04-27T01:48:16.517Z,7.93
2023-04-27T01:49:49.233Z,8.63
2023-04-27T01:51:21.916Z,7.45
2023-04-27T01:52:54.644Z,7.38
2023-04-27T01:54:28.844Z,7.45
2023-04-27T01:56:02.257Z,7.60
2023-04-27T01:57:35.055Z,9.85
2023-04-27T01:59:07.803Z,6.28
2023-04-27T02:00:39.576Z,6.50
2023-04-27T02:02:12.348Z,8.35
2023-04-27T02:03:45.271Z,7.45
2023-04-27T02:05:18.278Z,6.20
2023-04-27T02:06:51.011Z,7.68
2023-04-27T02:08:22.776Z,6.90
2023-04-27T02:09:56.814Z,6.80
2023-04-27T02:11:29.485Z,6.30
2023-04-27T02:13:02.267Z,8.00
2023-04-27T02:14:34.955Z,7.90
2023-04-27T02:16:08.389Z,6.30
2023-04-27T02:17:41.183Z,7.68
2023-04-27T02:19:14.131Z,6.28
2023-04-27T02:20:47.016Z,6.97
2023-04-27T02:22:19.704Z,9.65
2023-04-27T02:23:52.460Z,6.78
2023-04-27T02:25:25.889Z,9.00
2023-04-27T02:26:58.605Z,9.25
2023-04-27T02:28:32.160Z,7.03
2023-04-27T02:30:06.740Z,9.68
2023-04-27T02:31:39.987Z,8.35
2023-04-27T02:33:12.766Z,6.95
2023-04-27T02:34:45.467Z,8.27
2023-04-27T02:36:18.340Z,8.55
2023-04-27T02:37:51.031Z,6.20
2023-04-27T02:39:23.905Z,8.20
2023-04-27T02:40:56.993Z,7.30
2023-04-27T02:42:31.217Z,9.57
2023-04-27T02:44:03.923Z,7.70
2023-04-27T02:45:38.698Z,9.60
2023-04-27T02:47:11.871Z,7.15
2023-04-27T02:48:44.563Z,6.50
2023-04-27T02:50:17.263Z,8.57
2023-04-27T02:51:49.959Z,9.98
2023-04-27T02:53:21.698Z,10.15
2023-04-27T02:54:54.429Z,7.68
2023-04-27T02:56:28.492Z,6.93
2023-04-27T02:58:01.253Z,8.18
2023-04-27T02:59:34.004Z,7.45
2023-04-27T03:01:06.795Z,6.78
2023-04-27T03:02:39.658Z,8.35
2023-04-27T03:04:14.039Z,8.00
2023-04-27T03:05:46.947Z,7.35
2023-04-27T03:07:18.683Z,7.47
2023-04-27T03:08:51.429Z,9.35
2023-04-27T03:10:23.243Z,8.10
2023-04-27T03:11:57.359Z,9.73
2023-04-27T03:13:30.072Z,7.38
2023-04-27T03:15:02.865Z,8.55
2023-04-27T03:16:36.218Z,6.88
2023-04-27T03:18:09.115Z,8.13
2023-04-27T03:19:42.009Z,8.68
2023-04-27T03:21:16.784Z,9.68
2023-04-27T03:22:49.526Z,10.18
2023-04-27T03:24:25.448Z,10.15
2023-04-27T03:25:58.127Z,10.30
2023-04-27T03:27:31.292Z,8.45
2023-04-27T03:29:03.992Z,7.35
2023-04-27T03:30:36.703Z,9.75
2023-04-27T03:32:08.580Z,8.35
2023-04-27T03:33:41.915Z,10.20
2023-04-27T03:35:14.873Z,9.73
2023-04-27T03:36:47.604Z,10.45
2023-04-27T03:38:20.296Z,8.85
2023-04-27T03:39:53.733Z,9.35
2023-04-27T03:41:26.419Z,8.93
2023-04-27T03:43:00.878Z,8.63
2023-04-27T03:44:36.240Z,9.75
2023-04-27T03:46:09.675Z,9.50
2023-04-27T03:47:42.430Z,9.20
2023-04-27T03:49:15.330Z,10.18
2023-04-27T03:50:48.178Z,9.85
2023-04-27T03:52:20.148Z,8.68
2023-04-27T03:53:53.266Z,9.25
2023-04-27T03:55:26.742Z,9.02
2023-04-27T03:56:59.463Z,10.15
2023-04-27T03:58:33.510Z,9.05
2023-04-27T04:00:11.465Z,12.02
2023-04-27T04:01:43.332Z,9.02
2023-04-27T04:03:16.594Z,10.93
2023-04-27T04:04:49.681Z,9.45
2023-04-27T04:06:22.419Z,9.90
2023-04-27T04:07:55.838Z,9.95
2023-04-27T04:09:28.553Z,7.93
2023-04-27T04:11:01.425Z,10.65
2023-04-27T04:12:34.129Z,9.02
2023-04-27T04:14:08.148Z,8.15
2023-04-27T04:15:40.865Z,9.15
2023-04-27T04:17:12.617Z,10.38
2023-04-27T04:18:45.390Z,11.38
2023-04-27T04:20:18.178Z,8.02
2023-04-27T04:21:50.903Z,8.85
2023-04-27T04:23:24.008Z,12.27
2023-04-27T04:24:56.782Z,8.18
2023-04-27T04:26:30.669Z,8.75
2023-04-27T04:28:03.550Z,10.30
2023-04-27T04:29:36.679Z,10.80
2023-04-27T04:31:09.530Z,11.60
2023-04-27T04:32:41.555Z,11.98
2023-04-27T04:34:14.402Z,13.95
2023-04-27T04:35:47.676Z,9.38
2023-04-27T04:37:20.398Z,10.93
2023-04-27T04:38:53.954Z,10.57
2023-04-27T04:40:27.077Z,10.57
2023-04-27T04:41:59.834Z,10.43
2023-04-27T04:43:32.742Z,10.77
2023-04-27T04:45:08.188Z,10.60
2023-04-27T04:46:40.994Z,10.32
2023-04-27T04:48:16.306Z,11.00
2023-04-27T04:49:49.002Z,10.10
2023-04-27T04:51:21.689Z,9.40
2023-04-27T04:52:54.433Z,8.70
2023-04-27T04:54:27.660Z,7.95
2023-04-27T04:56:09.576Z,13.25
2023-04-27T04:57:42.396Z,9.80
2023-04-27T04:59:14.276Z,10.52
2023-04-27T05:00:48.437Z,12.25
2023-04-27T05:02:21.500Z,10.23
2023-04-27T05:03:54.468Z,9.75
2023-04-27T05:05:27.251Z,10.95
2023-04-27T05:07:00.215Z,13.20
2023-04-27T05:08:32.933Z,12.15
2023-04-27T05:10:06.363Z,9.75
2023-04-27T05:11:39.061Z,9.52
2023-04-27T05:13:11.759Z,10.10
2023-04-27T05:14:44.588Z,10.73
2023-04-27T05:16:18.657Z,8.77
2023-04-27T05:17:51.406Z,10.07
2023-04-27T05:19:25.187Z,15.05
2023-04-27T05:20:57.892Z,8.45
2023-04-27T05:22:30.595Z,8.05
2023-04-27T05:24:03.264Z,10.00
2023-04-27T05:25:41.379Z,8.68
2023-04-27T05:27:14.620Z,9.88
2023-04-27T05:28:49.240Z,8.13
2023-04-27T05:30:22.053Z,12.32
2023-04-27T05:31:56.177Z,10.65
2023-04-27T05:33:28.900Z,9.70
2023-04-27T05:35:01.609Z,9.90
2023-04-27T05:36:34.315Z,6.40
2023-04-27T05:38:07.009Z,8.93
2023-04-27T05:39:40.532Z,9.73
2023-04-27T05:41:13.248Z,13.80
2023-04-27T05:42:47.561Z,9.55
2023-04-27T05:44:20.277Z,11.30
2023-04-27T05:45:53.290Z,8.93
2023-04-27T05:47:27.388Z,9.57
2023-04-27T05:49:00.202Z,12.00
2023-04-27T05:50:32.903Z,7.25
2023-04-27T05:52:05.874Z,10.65
2023-04-27T05:53:38.907Z,8.02
2023-04-27T05:55:11.633Z,7.63
2023-04-27T05:56:44.336Z,10.82
2023-04-27T05:58:17.079Z,11.40
2023-04-27T05:59:49.794Z,7.18
2023-04-27T06:01:23.411Z,9.25
2023-04-27T06:02:57.543Z,8.55
2023-04-27T06:04:32.653Z,7.78
2023-04-27T06:06:05.779Z,9.57
2023-04-27T06:07:38.520Z,8.60
2023-04-27T06:09:11.327Z,7.75
2023-04-27T06:10:44.090Z,7.57
2023-04-27T06:12:16.790Z,6.97
2023-04-27T06:13:49.483Z,7.38
2023-04-27T06:15:22.190Z,8.40
2023-04-27T06:16:54.864Z,7.10
2023-04-27T06:18:28.957Z,10.02
2023-04-27T06:20:01.714Z,6.35
2023-04-27T06:21:34.787Z,8.73
2023-04-27T06:23:07.595Z,10.07
2023-04-27T06:24:40.308Z,5.63
2023-04-27T06:26:12.996Z,7.47
2023-04-27T06:27:45.844Z,9.63
2023-04-27T06:29:18.615Z,9.13
2023-04-27T06:30:51.412Z,8.98
2023-04-27T06:32:24.225Z,9.50
2023-04-27T06:33:58.275Z,6.13
2023-04-27T06:35:31.568Z,7.57
2023-04-27T06:37:04.257Z,10.02
2023-04-27T06:38:36.947Z,7.25
2023-04-27T06:40:10.684Z,7.57
2023-04-27T06:41:43.379Z,9.68
2023-04-27T06:43:16.072Z,8.32
2023-04-27T06:44:48.777Z,8.13
2023-04-27T06:46:21.845Z,9.15
2023-04-27T06:47:54.554Z,8.48
2023-04-27T06:49:28.635Z,7.53
2023-04-27T06:51:01.555Z,6.35
2023-04-27T06:52:34.300Z,7.40
2023-04-27T06:54:07.529Z,6.07
2023-04-27T06:55:43.472Z,7.10
2023-04-27T06:57:17.239Z,8.18
2023-04-27T06:58:49.921Z,7.53
2023-04-27T07:00:22.857Z,7.40
2023-04-27T07:01:55.617Z,6.63
2023-04-27T07:03:28.479Z,5.40
2023-04-27T07:05:02.765Z,6.43
2023-04-27T07:06:36.234Z,5.45
2023-04-27T07:08:09.271Z,5.88
2023-04-27T07:09:42.435Z,6.78
2023-04-27T07:11:16.142Z,5.28
2023-04-27T07:12:48.842Z,7.53
2023-04-27T07:14:21.576Z,4.88
2023-04-27T07:15:58.479Z,7.13
2023-04-27T07:17:31.360Z,7.45
2023-04-27T07:19:04.181Z,4.82
2023-04-27T07:20:39.931Z,10.55
2023-04-27T07:22:12.640Z,6.43
2023-04-27T07:23:46.422Z,8.18
2023-04-27T07:25:19.153Z,6.67
2023-04-27T07:26:51.893Z,9.00
2023-04-27T07:28:24.600Z,9.07
2023-04-27T07:29:57.271Z,8.27
2023-04-27T07:31:29.975Z,6.80
2023-04-27T07:33:02.750Z,7.00
2023-04-27T07:34:48.980Z,5.60
2023-04-27T07:36:27.374Z,6.67
2023-04-27T07:38:01.562Z,10.57
2023-04-27T07:39:34.296Z,5.27
2023-04-27T07:41:07.721Z,7.00
2023-04-27T07:42:41.235Z,9.77
2023-04-27T07:44:15.092Z,7.17
2023-04-27T07:45:48.034Z,5.97
2023-04-27T07:47:21.860Z,4.83
2023-04-27T07:48:55.169Z,8.27
2023-04-27T07:50:28.407Z,5.83
2023-04-27T07:52:02.951Z,5.67
2023-04-27T07:53:36.459Z,6.10
2023-04-27T07:55:09.781Z,5.47
2023-04-27T07:56:43.523Z,5.90
2023-04-27T07:58:16.886Z,6.90
2023-04-27T07:59:49.586Z,6.70
2023-04-27T08:01:22.303Z,5.90
2023-04-27T08:02:55.809Z,7.77
2023-04-27T08:04:29.028Z,5.70
2023-04-27T08:06:02.370Z,5.43
2023-04-27T08:07:41.186Z,5.27
2023-04-27T08:09:16.985Z,4.43
2023-04-27T08:10:49.683Z,7.00
2023-04-27T08:12:22.430Z,6.23
2023-04-27T08:13:55.101Z,5.50
2023-04-27T08:15:27.999Z,6.83
2023-04-27T08:17:00.730Z,7.57
2023-04-27T08:18:33.494Z,5.60
2023-04-27T08:20:07.809Z,6.67
2023-04-27T08:21:40.627Z,6.63
2023-04-27T08:23:14.900Z,4.67
2023-04-27T08:24:47.584Z,7.40
2023-04-27T08:26:20.657Z,7.30
2023-04-27T08:27:53.337Z,7.73
2023-04-27T08:29:28.596Z,8.23
2023-04-27T08:31:01.965Z,6.20
2023-04-27T08:32:34.786Z,5.23
2023-04-27T08:34:07.535Z,5.60
2023-04-27T08:35:40.412Z,6.57
2023-04-27T08:37:13.158Z,6.50
2023-04-27T08:38:47.276Z,6.67
2023-04-27T08:40:20.408Z,3.87
2023-04-27T08:41:53.341Z,4.63
2023-04-27T08:43:26.148Z,5.20
2023-04-27T08:44:58.871Z,5.47
2023-04-27T08:46:32.445Z,5.53
2023-04-27T08:48:05.820Z,6.50
2023-04-27T08:49:41.281Z,5.80
2023-04-27T08:51:16.922Z,6.13
2023-04-27T08:52:50.355Z,6.10
2023-04-27T08:54:24.392Z,8.77
2023-04-27T08:55:57.782Z,7.27
2023-04-27T08:57:30.528Z,6.73
2023-04-27T08:59:04.333Z,7.23
2023-04-27T09:00:40.600Z,5.53
2023-04-27T09:02:20.884Z,7.87
2023-04-27T09:03:57.810Z,4.87
2023-04-27T09:05:30.877Z,6.47
2023-04-27T09:07:11.668Z,8.30
2023-04-27T09:08:48.688Z,5.67
2023-04-27T09:10:23.150Z,6.07
2023-04-27T09:11:55.963Z,8.27
2023-04-27T09:13:36.505Z,8.13
2023-04-27T09:15:10.211Z,7.07
2023-04-27T09:16:43.806Z,6.83
2023-04-27T09:18:18.699Z,5.17
2023-04-27T09:19:51.421Z,6.33
2023-04-27T09:21:24.869Z,4.77
2023-04-27T09:22:58.545Z,8.23
2023-04-27T09:24:31.592Z,7.77
2023-04-27T09:26:08.612Z,6.20
2023-04-27T09:27:43.699Z,8.07
2023-04-27T09:29:16.399Z,6.97
2023-04-27T09:30:54.370Z,3.93
2023-04-27T09:32:27.098Z,7.67
2023-04-27T09:34:00.169Z,7.17
2023-04-27T09:35:33.920Z,5.87
2023-04-27T09:37:07.366Z,6.53
2023-04-27T09:38:40.787Z,6.27
2023-04-27T09:40:14.545Z,6.07
2023-04-27T09:41:50.189Z,7.63
2023-04-27T09:43:23.913Z,5.37
2023-04-27T09:44:56.951Z,4.90
2023-04-27T09:46:33.943Z,5.33
2023-04-27T09:48:07.867Z,5.43
2023-04-27T09:49:40.948Z,5.80
2023-04-27T09:51:16.176Z,4.70
2023-04-27T09:52:48.914Z,6.10
2023-04-27T09:54:24.909Z,5.40
2023-04-27T09:56:10.960Z,6.00
2023-04-27T09:57:54.152Z,6.30
2023-04-27T09:59:42.496Z,5.90
2023-04-27T10:01:23.662Z,6.17
2023-04-27T10:03:12.874Z,5.20
2023-04-27T10:05:01.572Z,6.23
2023-04-27T10:06:55.936Z,8.57
2023-04-27T10:08:30.705Z,5.17
2023-04-27T10:10:05.631Z,5.30
2023-04-27T10:11:43.488Z,7.60
2023-04-27T10:13:24.006Z,5.37
2023-04-27T10:14:57.916Z,7.47
2023-04-27T10:16:44.516Z,7.80
2023-04-27T10:18:27.514Z,5.60
2023-04-27T10:20:01.691Z,5.67
2023-04-27T10:21:34.425Z,6.40
2023-04-27T10:23:07.683Z,5.93
2023-04-27T10:24:42.689Z,4.33
2023-04-27T10:26:23.209Z,6.50
2023-04-27T10:27:57.460Z,5.93
2023-04-27T10:29:38.581Z,4.33
2023-04-27T10:31:12.151Z,6.23
2023-04-27T10:32:52.450Z,7.00
2023-04-27T10:34:29.048Z,7.17
2023-04-27T10:36:01.756Z,6.40
2023-04-27T10:37:40.659Z,6.73
2023-04-27T10:39:27.667Z,7.50
2023-04-27T10:41:05.933Z,4.20
2023-04-27T10:42:38.645Z,5.43
2023-04-27T10:44:18.524Z,5.73
2023-04-27T10:45:52.582Z,5.43
2023-04-27T10:47:25.764Z,7.70
2023-04-27T10:48:58.769Z,6.00
2023-04-27T10:50:31.916Z,8.80
2023-04-27T10:52:05.082Z,5.70
2023-04-27T10:53:38.497Z,6.33
2023-04-27T10:55:18.248Z,5.10
2023-04-27T10:56:51.084Z,5.27
2023-04-27T10:58:26.688Z,5.00
2023-04-27T11:00:07.787Z,6.83
2023-04-27T11:01:42.310Z,7.23
2023-04-27T11:03:17.328Z,6.67
2023-04-27T11:04:50.248Z,6.17
2023-04-27T11:06:22.991Z,6.80
2023-04-27T11:08:05.569Z,5.13
2023-04-27T11:09:38.712Z,4.70
2023-04-27T11:11:16.658Z,5.90
2023-04-27T11:12:49.570Z,7.20
2023-04-27T11:14:22.335Z,5.70
2023-04-27T11:15:57.713Z,5.13
2023-04-27T11:17:33.278Z,5.13
2023-04-27T11:19:06.689Z,5.10
2023-04-27T11:20:39.416Z,5.27
2023-04-27T11:22:16.741Z,7.60
2023-04-27T11:23:49.511Z,6.80
2023-04-27T11:25:28.735Z,5.73
2023-04-27T11:27:01.439Z,8.93
2023-04-27T11:28:34.148Z,6.50
2023-04-27T11:30:21.181Z,7.10
2023-04-27T11:31:53.911Z,6.23
2023-04-27T11:33:28.873Z,6.47
2023-04-27T11:35:01.803Z,7.43
2023-04-27T11:36:34.544Z,5.40
2023-04-27T11:38:07.356Z,7.80
2023-04-27T11:39:41.472Z,6.30
2023-04-27T11:41:14.604Z,7.47
2023-04-27T11:42:58.079Z,8.10
2023-04-27T11:44:30.791Z,6.20
2023-04-27T11:46:04.687Z,7.17
2023-04-27T11:47:38.001Z,6.10
2023-04-27T11:49:14.024Z,7.87
2023-04-27T11:50:48.572Z,12.27
2023-04-27T11:52:21.343Z,9.17
2023-04-27T11:53:54.047Z,7.30
2023-04-27T11:55:26.795Z,9.53
2023-04-27T11:57:06.215Z,6.03
2023-04-27T11:58:40.728Z,8.00
2023-04-27T12:00:15.425Z,7.13
2023-04-27T12:01:48.502Z,6.03
2023-04-27T12:03:21.752Z,6.50
2023-04-27T12:04:56.478Z,7.37
2023-04-27T12:06:33.206Z,6.50
2023-04-27T12:08:06.675Z,5.77
2023-04-27T12:09:39.385Z,6.40
2023-04-27T12:11:12.367Z,6.33
2023-04-27T12:12:45.162Z,8.53
2023-04-27T12:14:19.762Z,5.17
2023-04-27T12:15:52.491Z,6.03
2023-04-27T12:17:25.233Z,5.10
2023-04-27T12:18:57.958Z,6.43
2023-04-27T12:20:32.005Z,6.37
2023-04-27T12:22:06.541Z,5.60
2023-04-27T12:23:39.236Z,5.60
2023-04-27T12:25:11.953Z,7.73
2023-04-27T12:26:45.041Z,4.90
2023-04-27T12:28:20.332Z,5.97
2023-04-27T12:29:54.190Z,5.13
2023-04-27T12:31:28.243Z,4.77
2023-04-27T12:33:01.219Z,7.00
2023-04-27T12:34:34.411Z,7.47
2023-04-27T12:36:08.825Z,7.07
2023-04-27T12:37:41.954Z,5.70
2023-04-27T12:39:16.187Z,8.13
2023-04-27T12:40:49.288Z,5.67
2023-04-27T12:42:24.089Z,6.23
2023-04-27T12:43:56.809Z,5.37
2023-04-27T12:45:29.650Z,5.80
2023-04-27T12:47:02.331Z,7.20
2023-04-27T12:48:35.152Z,6.87
2023-04-27T12:50:09.648Z,6.93
2023-04-27T12:51:44.188Z,7.27
2023-04-27T12:53:17.164Z,5.50
2023-04-27T12:54:51.151Z,4.27
2023-04-27T12:56:23.978Z,7.47
2023-04-27T12:57:57.996Z,6.90
2023-04-27T12:59:30.927Z,4.87
2023-04-27T13:01:03.712Z,5.53
2023-04-27T13:02:36.971Z,7.17
2023-04-27T13:04:09.990Z,5.97
2023-04-27T13:05:44.294Z,6.00
2023-04-27T13:07:19.087Z,7.30
2023-04-27T13:08:52.033Z,4.23
2023-04-27T13:10:24.842Z,8.07
2023-04-27T13:11:59.229Z,4.80
2023-04-27T13:13:34.050Z,5.80
2023-04-27T13:15:08.153Z,6.93
2023-04-27T13:16:41.089Z,6.43
2023-04-27T13:18:13.978Z,6.40
2023-04-27T13:19:46.774Z,7.97
2023-04-27T13:21:20.343Z,7.63
2023-04-27T13:22:54.495Z,9.33
2023-04-27T13:24:29.262Z,4.77
2023-04-27T13:26:02.243Z,5.87
2023-04-27T13:27:35.655Z,6.23
2023-04-27T13:29:08.388Z,3.63
2023-04-27T13:30:41.123Z,4.93
2023-04-27T13:32:13.818Z,4.67
2023-04-27T13:33:46.595Z,7.43
2023-04-27T13:35:19.446Z,5.07
2023-04-27T13:36:52.250Z,5.17
2023-04-27T13:38:26.381Z,6.47
2023-04-27T13:39:59.058Z,3.90
2023-04-27T13:41:32.880Z,4.37
2023-04-27T13:43:05.636Z,5.33
2023-04-27T13:44:38.370Z,4.67
2023-04-27T13:46:11.450Z,4.57
2023-04-27T13:47:44.248Z,5.83
2023-04-27T13:49:17.049Z,6.93
2023-04-27T13:50:49.785Z,8.80
2023-04-27T13:52:22.492Z,4.87
2023-04-27T13:53:56.501Z,5.17
2023-04-27T13:55:29.357Z,6.23
2023-04-27T13:57:03.331Z,4.07
2023-04-27T13:58:36.916Z,4.33
2023-04-27T14:00:11.315Z,6.80
2023-04-27T14:01:44.312Z,6.60
2023-04-27T14:03:17.629Z,4.23
2023-04-27T14:04:50.598Z,4.03
2023-04-27T14:06:23.499Z,5.10
2023-04-27T14:07:56.250Z,3.97
2023-04-27T14:09:30.330Z,5.07
2023-04-27T14:11:03.061Z,6.03
2023-04-27T14:12:36.029Z,5.73
2023-04-27T14:14:08.835Z,5.37
2023-04-27T14:15:41.663Z,7.27
2023-04-27T14:17:14.396Z,5.37
2023-04-27T14:18:47.098Z,6.20
2023-04-27T14:20:19.809Z,4.10
2023-04-27T14:21:52.588Z,4.70
2023-04-27T14:23:25.377Z,6.33
2023-04-27T14:24:59.483Z,6.60
2023-04-27T14:26:32.178Z,6.43
2023-04-27T14:28:06.760Z,6.40
2023-04-27T14:29:39.497Z,4.50
2023-04-27T14:31:12.260Z,5.13
2023-04-27T14:32:45.405Z,9.00
2023-04-27T14:34:20.255Z,6.03
2023-04-27T14:35:56.012Z,4.80
2023-04-27T14:37:28.793Z,5.70
2023-04-27T14:39:01.992Z,6.87
2023-04-27T14:40:36.018Z,8.53
2023-04-27T14:42:08.756Z,4.87
2023-04-27T14:43:41.777Z,6.07
2023-04-27T14:45:15.803Z,6.83
2023-04-27T14:46:48.617Z,5.07
2023-04-27T14:48:21.336Z,5.97
2023-04-27T14:49:54.032Z,5.90
2023-04-27T14:51:28.726Z,7.73
2023-04-27T14:53:01.770Z,6.57
2023-04-27T14:54:35.534Z,5.67
2023-04-27T14:56:09.667Z,5.40
2023-04-27T14:57:42.365Z,6.40
2023-04-27T14:59:15.252Z,7.50
2023-04-27T15:00:48.134Z,7.17
2023-04-27T15:02:20.950Z,6.73
2023-04-27T15:03:54.252Z,6.17
2023-04-27T15:05:27.120Z,6.13
2023-04-27T15:06:59.793Z,7.23
2023-04-27T15:08:34.137Z,7.17
2023-04-27T15:10:08.453Z,6.00
2023-04-27T15:11:42.504Z,8.60
2023-04-27T15:13:15.214Z,5.83
2023-04-27T15:14:49.912Z,7.83
2023-04-27T15:16:22.694Z,5.63
2023-04-27T15:17:55.507Z,6.03
2023-04-27T15:19:28.249Z,7.57
2023-04-27T15:21:01.312Z,5.77
2023-04-27T15:22:34.053Z,6.70
2023-04-27T15:24:07.119Z,6.17
2023-04-27T15:25:39.820Z,7.60
2023-04-27T15:27:14.259Z,6.40
2023-04-27T15:28:47.268Z,4.43
2023-04-27T15:30:19.997Z,5.43
2023-04-27T15:31:53.258Z,7.87
2023-04-27T15:33:26.461Z,7.37
2023-04-27T15:34:59.189Z,6.00
2023-04-27T15:36:32.426Z,5.27
2023-04-27T15:38:05.595Z,5.57
2023-04-27T15:39:38.296Z,4.87
2023-04-27T15:41:11.135Z,5.50
2023-04-27T15:42:45.202Z,10.57
2023-04-27T15:44:17.952Z,6.37
2023-04-27T15:45:50.724Z,5.80
2023-04-27T15:47:23.467Z,5.13
2023-04-27T15:48:56.164Z,6.27
2023-04-27T15:50:28.907Z,6.10
2023-04-27T15:52:01.663Z,4.83
2023-04-27T15:53:34.380Z,7.40
2023-04-27T15:55:08.456Z,5.73
2023-04-27T15:56:41.199Z,5.50
2023-04-27T15:58:16.033Z,8.83
2023-04-27T15:59:48.732Z,6.53
2023-04-27T16:01:21.479Z,7.07
2023-04-27T16:02:54.683Z,6.23
2023-04-27T16:04:27.633Z,5.97
2023-04-27T16:06:00.353Z,5.90
2023-04-27T16:07:33.073Z,5.57
2023-04-27T16:09:08.338Z,5.27
2023-04-27T16:10:42.544Z,6.17
2023-04-27T16:12:15.292Z,5.97
2023-04-27T16:13:49.350Z,6.70
2023-04-27T16:15:22.038Z,4.23
2023-04-27T16:16:56.078Z,5.83
2023-04-27T16:18:28.865Z,4.50
2023-04-27T16:20:01.555Z,5.07
2023-04-27T16:21:34.294Z,4.53
2023-04-27T16:23:07.025Z,4.20
2023-04-27T16:24:39.720Z,4.00
2023-04-27T16:26:12.446Z,5.43
2023-04-27T16:27:45.190Z,7.40
2023-04-27T16:29:19.224Z,5.33
2023-04-27T16:30:52.755Z,6.73
2023-04-27T16:32:26.705Z,6.57
2023-04-27T16:33:59.473Z,4.33
2023-04-27T16:35:33.529Z,6.40
2023-04-27T16:37:06.778Z,4.60
2023-04-27T16:38:39.706Z,4.50
2023-04-27T16:40:13.475Z,6.00
2023-04-27T16:41:46.239Z,4.80
2023-04-27T16:43:19.238Z,4.20
2023-04-27T16:44:53.559Z,6.37
2023-04-27T16:46:26.426Z,6.20
2023-04-27T16:47:59.802Z,4.33
2023-04-27T16:49:32.604Z,3.70
2023-04-27T16:51:05.718Z,5.47
2023-04-27T16:52:38.431Z,7.60
2023-04-27T16:54:11.110Z,6.23
2023-04-27T16:55:43.796Z,4.70
2023-04-27T16:57:16.508Z,6.20
2023-04-27T16:58:49.245Z,5.03
2023-04-27T17:00:23.401Z,4.10
2023-04-27T17:01:56.167Z,7.07
2023-04-27T17:03:29.824Z,4.93
2023-04-27T17:05:03.185Z,4.70
2023-04-27T17:06:35.932Z,5.20
2023-04-27T17:08:08.629Z,8.07
2023-04-27T17:09:41.651Z,4.00
2023-04-27T17:11:14.790Z,3.87
2023-04-27T17:12:47.527Z,4.63
2023-04-27T17:14:22.343Z,4.93
2023-04-27T17:15:57.733Z,4.00
2023-04-27T17:17:32.200Z,3.10
2023-04-27T17:19:04.868Z,4.87
2023-04-27T17:20:39.234Z,4.13
2023-04-27T17:22:14.704Z,6.23
2023-04-27T17:23:47.444Z,5.57
2023-04-27T17:25:20.255Z,4.60
2023-04-27T17:26:52.953Z,5.10
2023-04-27T17:28:25.754Z,5.27
2023-04-27T17:29:58.449Z,7.17
2023-04-27T17:31:32.566Z,7.57
2023-04-27T17:33:05.794Z,6.23
2023-04-27T17:34:40.386Z,6.97
2023-04-27T17:36:14.874Z,5.20
2023-04-27T17:37:47.777Z,5.13
2023-04-27T17:39:22.499Z,4.67
2023-04-27T17:40:55.250Z,3.87
2023-04-27T17:42:28.042Z,4.53
2023-04-27T17:44:00.782Z,6.60
2023-04-27T17:45:33.615Z,10.97
2023-04-27T17:47:07.750Z,4.43
2023-04-27T17:48:40.452Z,5.13
2023-04-27T17:50:14.653Z,7.73
2023-04-27T17:51:49.067Z,4.77
2023-04-27T17:53:21.796Z,5.37
2023-04-27T17:54:55.621Z,4.37
2023-04-27T17:56:28.335Z,4.80
2023-04-27T17:58:03.626Z,3.80
2023-04-27T17:59:36.837Z,4.97
2023-04-27T18:01:11.366Z,5.70
2023-04-27T18:02:45.782Z,6.87
2023-04-27T18:04:18.825Z,6.10
2023-04-27T18:05:51.587Z,4.10
2023-04-27T18:07:24.398Z,4.40
2023-04-27T18:08:57.156Z,5.63
2023-04-27T18:10:29.922Z,7.97
2023-04-27T18:12:03.027Z,6.23
2023-04-27T18:13:35.713Z,4.73
2023-04-27T18:15:10.020Z,5.23
2023-04-27T18:16:42.917Z,5.77
2023-04-27T18:18:22.556Z,5.03
2023-04-27T18:20:07.498Z,6.70
2023-04-27T18:21:41.408Z,5.00
2023-04-27T18:23:14.187Z,4.47
2023-04-27T18:24:47.622Z,5.70
2023-04-27T18:26:21.945Z,4.73
2023-04-27T18:27:55.443Z,4.73
2023-04-27T18:29:28.191Z,4.60
2023-04-27T18:31:00.917Z,6.07
2023-04-27T18:32:35.332Z,4.63
2023-04-27T18:34:09.359Z,5.67
2023-04-27T18:35:42.053Z,5.63
2023-04-27T18:37:14.758Z,7.07
2023-04-27T18:38:48.172Z,5.10
2023-04-27T18:40:22.460Z,6.93
2023-04-27T18:41:55.268Z,4.13
2023-04-27T18:43:28.010Z,4.70
2023-04-27T18:45:01.749Z,5.77
2023-04-27T18:46:35.413Z,5.17
2023-04-27T18:48:08.182Z,5.57
2023-04-27T18:49:42.297Z,5.00
2023-04-27T18:51:15.023Z,6.37
2023-04-27T18:52:48.082Z,5.73
2023-04-27T18:54:21.051Z,5.97
2023-04-27T18:55:53.746Z,4.50
2023-04-27T18:57:27.006Z,5.00
2023-04-27T18:59:00.686Z,4.67
2023-04-27T19:00:33.701Z,5.43
2023-04-27T19:02:07.351Z,4.73
2023-04-27T19:03:40.189Z,4.10
2023-04-27T19:05:15.782Z,4.67
2023-04-27T19:06:49.963Z,4.97
2023-04-27T19:08:22.733Z,4.00
2023-04-27T19:09:55.835Z,3.70
2023-04-27T19:11:28.821Z,3.57
2023-04-27T19:13:01.656Z,5.73
2023-04-27T19:14:34.382Z,6.63
2023-04-27T19:16:08.544Z,5.93
2023-04-27T19:17:41.256Z,5.60
2023-04-27T19:19:14.319Z,3.67
2023-04-27T19:20:49.254Z,7.90
2023-04-27T19:22:22.881Z,3.90
2023-04-27T19:23:55.599Z,4.70
2023-04-27T19:25:28.336Z,5.67
2023-04-27T19:27:01.117Z,6.33
2023-04-27T19:28:33.868Z,3.67
2023-04-27T19:30:08.307Z,5.10
2023-04-27T19:31:41.285Z,3.73
2023-04-27T19:33:14.560Z,5.03
2023-04-27T19:34:47.601Z,5.60
2023-04-27T19:36:21.629Z,4.43
2023-04-27T19:37:54.428Z,4.30
2023-04-27T19:39:27.115Z,5.47
2023-04-27T19:41:00.052Z,4.93
2023-04-27T19:42:32.747Z,4.00
2023-04-27T19:44:05.757Z,5.17
2023-04-27T19:45:39.606Z,4.40
2023-04-27T19:47:12.361Z,7.27
2023-04-27T19:48:45.080Z,5.40
2023-04-27T19:50:18.633Z,6.27
2023-04-27T19:51:52.659Z,5.13
2023-04-27T19:53:25.575Z,4.63
2023-04-27T19:54:59.808Z,5.40
2023-04-27T19:56:32.607Z,4.13
2023-04-27T19:58:05.414Z,5.13
2023-04-27T19:59:38.103Z,4.50
2023-04-27T20:01:12.966Z,4.33
2023-04-27T20:02:46.515Z,3.97
2023-04-27T20:04:20.738Z,4.00
2023-04-27T20:05:54.404Z,3.97
2023-04-27T20:07:28.640Z,4.80
2023-04-27T20:09:01.372Z,7.37
2023-04-27T20:10:34.119Z,4.23
2023-04-27T20:13:40.015Z,8.03
2023-04-27T20:15:12.812Z,4.33
2023-04-27T20:16:45.510Z,6.30
2023-04-27T20:18:19.125Z,4.60
2023-04-27T20:19:52.513Z,5.63
2023-04-27T20:21:26.201Z,7.10
2023-04-27T20:23:00.215Z,4.03
2023-04-27T20:24:32.959Z,5.53
2023-04-27T20:26:05.820Z,4.37
2023-04-27T20:27:38.505Z,5.60
2023-04-27T20:29:11.462Z,4.93
2023-04-27T20:30:44.239Z,5.20
2023-04-27T20:32:17.011Z,5.43
2023-04-27T20:33:49.746Z,5.07
2023-04-27T20:35:24.013Z,5.47
2023-04-27T20:36:57.819Z,5.50
2023-04-27T20:38:32.353Z,8.20
2023-04-27T20:40:06.848Z,6.30
2023-04-27T20:41:41.876Z,5.53
2023-04-27T20:43:14.708Z,7.37
2023-04-27T20:44:48.310Z,3.60
2023-04-27T20:46:21.216Z,4.37